sensor_id;sensor_type;location;lat;lon;timestamp;P1;durP1;ratioP1;P2;durP2;ratioP2
28547;SDS011;68292;49.600;8.746;2023-12-14T00:00:07;6.43;;;5.43;;
28547;SDS011;68292;49.600;8.746;2023-12-14T00:02:36;6.40;;;5.83;;
28547;SDS011;68292;49.600;8.746;2023-12-14T00:05:06;8.30;;;6.90;;
28547;SDS011;68292;49.600;8.746;2023-12-14T00:07:35;8.57;;;7.77;;
28547;SDS011;68292;49.600;8.746;2023-12-14T00:10:05;8.37;;;7.50;;
28547;SDS011;68292;49.600;8.746;2023-12-14T00:12:34;10.13;;;9.03;;
28547;SDS011;68292;49.600;8.746;2023-12-14T00:15:03;9.90;;;9.00;;
28547;SDS011;68292;49.600;8.746;2023-12-14T00:17:35;10.17;;;9.17;;
28547;SDS011;68292;49.600;8.746;2023-12-14T00:20:05;10.77;;;9.67;;
28547;SDS011;68292;49.600;8.746;2023-12-14T00:22:36;11.57;;;10.47;;
28547;SDS011;68292;49.600;8.746;2023-12-14T00:25:05;11.03;;;10.03;;
28547;SDS011;68292;49.600;8.746;2023-12-14T00:27:34;11.27;;;10.10;;
28547;SDS011;68292;49.600;8.746;2023-12-14T00:30:03;11.87;;;10.43;;
28547;SDS011;68292;49.600;8.746;2023-12-14T00:32:35;15.13;;;10.70;;
28547;SDS011;68292;49.600;8.746;2023-12-14T00:35:04;11.87;;;10.67;;
28547;SDS011;68292;49.600;8.746;2023-12-14T00:37:34;11.87;;;10.70;;
28547;SDS011;68292;49.600;8.746;2023-12-14T00:40:03;12.90;;;11.60;;
28547;SDS011;68292;49.600;8.746;2023-12-14T00:42:32;12.10;;;10.90;;
28547;SDS011;68292;49.600;8.746;2023-12-14T00:45:01;12.50;;;11.30;;
28547;SDS011;68292;49.600;8.746;2023-12-14T00:47:32;11.20;;;9.93;;
28547;SDS011;68292;49.600;8.746;2023-12-14T00:50:01;11.03;;;10.03;;
28547;SDS011;68292;49.600;8.746;2023-12-14T00:52:31;9.30;;;8.50;;
28547;SDS011;68292;49.600;8.746;2023-12-14T00:55:00;8.80;;;7.90;;
28547;SDS011;68292;49.600;8.746;2023-12-14T00:57:29;8.83;;;8.03;;
28547;SDS011;68292;49.600;8.746;2023-12-14T00:59:57;10.73;;;8.10;;
28547;SDS011;68292;49.600;8.746;2023-12-14T01:02:26;8.23;;;7.30;;
28547;SDS011;68292;49.600;8.746;2023-12-14T01:04:56;8.83;;;7.93;;
28547;SDS011;68292;49.600;8.746;2023-12-14T01:07:28;9.37;;;8.57;;
28547;SDS011;68292;49.600;8.746;2023-12-14T01:09:57;9.60;;;7.83;;
28547;SDS011;68292;49.600;8.746;2023-12-14T01:12:25;8.53;;;7.73;;
28547;SDS011;68292;49.600;8.746;2023-12-14T01:14:54;8.20;;;7.13;;
28547;SDS011;68292;49.600;8.746;2023-12-14T01:17:23;7.67;;;6.67;;
28547;SDS011;68292;49.600;8.746;2023-12-14T01:19:52;8.17;;;6.77;;
28547;SDS011;68292;49.600;8.746;2023-12-14T01:22:23;8.30;;;7.03;;
28547;SDS011;68292;49.600;8.746;2023-12-14T01:24:51;7.60;;;6.90;;
28547;SDS011;68292;49.600;8.746;2023-12-14T01:27:20;8.60;;;7.73;;
28547;SDS011;68292;49.600;8.746;2023-12-14T01:29:49;8.63;;;7.73;;
28547;SDS011;68292;49.600;8.746;2023-12-14T01:32:18;10.53;;;8.90;;
28547;SDS011;68292;49.600;8.746;2023-12-14T01:34:47;9.70;;;8.63;;
28547;SDS011;68292;49.600;8.746;2023-12-14T01:37:16;8.83;;;7.93;;
28547;SDS011;68292;49.600;8.746;2023-12-14T01:39:46;9.33;;;8.30;;
28547;SDS011;68292;49.600;8.746;2023-12-14T01:42:15;9.77;;;8.83;;
28547;SDS011;68292;49.600;8.746;2023-12-14T01:44:44;9.13;;;8.33;;
28547;SDS011;68292;49.600;8.746;2023-12-14T01:47:12;9.30;;;8.33;;
28547;SDS011;68292;49.600;8.746;2023-12-14T01:49:41;9.00;;;8.23;;
28547;SDS011;68292;49.600;8.746;2023-12-14T01:52:10;8.77;;;7.97;;
28547;SDS011;68292;49.600;8.746;2023-12-14T01:54:39;9.27;;;8.27;;
28547;SDS011;68292;49.600;8.746;2023-12-14T01:57:09;9.47;;;8.47;;
28547;SDS011;68292;49.600;8.746;2023-12-14T01:59:38;9.13;;;8.20;;
28547;SDS011;68292;49.600;8.746;2023-12-14T02:02:06;9.17;;;8.13;;
28547;SDS011;68292;49.600;8.746;2023-12-14T02:04:35;10.00;;;9.07;;
28547;SDS011;68292;49.600;8.746;2023-12-14T02:07:04;9.93;;;8.90;;
28547;SDS011;68292;49.600;8.746;2023-12-14T02:09:33;9.53;;;8.67;;
28547;SDS011;68292;49.600;8.746;2023-12-14T02:12:01;10.33;;;9.27;;
28547;SDS011;68292;49.600;8.746;2023-12-14T02:14:32;9.30;;;8.40;;
28547;SDS011;68292;49.600;8.746;2023-12-14T02:17:01;10.67;;;8.67;;
28547;SDS011;68292;49.600;8.746;2023-12-14T02:19:30;9.33;;;8.33;;
28547;SDS011;68292;49.600;8.746;2023-12-14T02:21:58;10.13;;;9.10;;
28547;SDS011;68292;49.600;8.746;2023-12-14T02:24:28;8.93;;;8.07;;
28547;SDS011;68292;49.600;8.746;2023-12-14T02:26:57;8.67;;;7.83;;
28547;SDS011;68292;49.600;8.746;2023-12-14T02:29:29;8.80;;;8.00;;
28547;SDS011;68292;49.600;8.746;2023-12-14T02:31:58;8.90;;;8.10;;
28547;SDS011;68292;49.600;8.746;2023-12-14T02:34:27;8.00;;;7.30;;
28547;SDS011;68292;49.600;8.746;2023-12-14T02:36:56;8.50;;;7.70;;
28547;SDS011;68292;49.600;8.746;2023-12-14T02:39:25;7.93;;;7.23;;
28547;SDS011;68292;49.600;8.746;2023-12-14T02:41:55;8.30;;;7.50;;
28547;SDS011;68292;49.600;8.746;2023-12-14T02:44:23;8.73;;;7.67;;
28547;SDS011;68292;49.600;8.746;2023-12-14T02:46:52;11.30;;;8.00;;
28547;SDS011;68292;49.600;8.746;2023-12-14T02:49:21;10.07;;;9.07;;
28547;SDS011;68292;49.600;8.746;2023-12-14T02:51:50;9.23;;;8.33;;
28547;SDS011;68292;49.600;8.746;2023-12-14T02:54:18;9.07;;;8.27;;
28547;SDS011;68292;49.600;8.746;2023-12-14T02:56:47;10.03;;;9.03;;
28547;SDS011;68292;49.600;8.746;2023-12-14T02:59:17;10.37;;;9.37;;
28547;SDS011;68292;49.600;8.746;2023-12-14T03:01:46;11.70;;;8.77;;
28547;SDS011;68292;49.600;8.746;2023-12-14T03:04:14;10.67;;;8.93;;
28547;SDS011;68292;49.600;8.746;2023-12-14T03:06:43;9.47;;;8.57;;
28547;SDS011;68292;49.600;8.746;2023-12-14T03:09:12;8.37;;;7.57;;
28547;SDS011;68292;49.600;8.746;2023-12-14T03:11:41;9.47;;;8.43;;
28547;SDS011;68292;49.600;8.746;2023-12-14T03:14:09;8.77;;;7.97;;
28547;SDS011;68292;49.600;8.746;2023-12-14T03:16:40;10.07;;;9.17;;
28547;SDS011;68292;49.600;8.746;2023-12-14T03:19:08;9.50;;;8.57;;
28547;SDS011;68292;49.600;8.746;2023-12-14T03:21:37;10.30;;;9.37;;
28547;SDS011;68292;49.600;8.746;2023-12-14T03:24:06;10.20;;;9.10;;
28547;SDS011;68292;49.600;8.746;2023-12-14T03:26:35;9.80;;;8.83;;
28547;SDS011;68292;49.600;8.746;2023-12-14T03:29:04;8.93;;;8.03;;
28547;SDS011;68292;49.600;8.746;2023-12-14T03:31:34;8.97;;;8.17;;
28547;SDS011;68292;49.600;8.746;2023-12-14T03:34:05;9.47;;;8.47;;
28547;SDS011;68292;49.600;8.746;2023-12-14T03:36:33;9.90;;;9.00;;
28547;SDS011;68292;49.600;8.746;2023-12-14T03:39:01;10.07;;;9.27;;
28547;SDS011;68292;49.600;8.746;2023-12-14T03:41:30;10.70;;;9.70;;
28547;SDS011;68292;49.600;8.746;2023-12-14T03:43:59;12.23;;;10.13;;
28547;SDS011;68292;49.600;8.746;2023-12-14T03:46:28;10.63;;;8.40;;
28547;SDS011;68292;49.600;8.746;2023-12-14T03:48:57;11.13;;;9.07;;
28547;SDS011;68292;49.600;8.746;2023-12-14T03:51:27;8.67;;;7.87;;
28547;SDS011;68292;49.600;8.746;2023-12-14T03:53:56;9.00;;;7.73;;
28547;SDS011;68292;49.600;8.746;2023-12-14T03:56:25;10.03;;;9.03;;
28547;SDS011;68292;49.600;8.746;2023-12-14T03:58:53;8.77;;;7.97;;
28547;SDS011;68292;49.600;8.746;2023-12-14T04:01:23;8.87;;;8.07;;
28547;SDS011;68292;49.600;8.746;2023-12-14T04:03:52;8.47;;;7.53;;
28547;SDS011;68292;49.600;8.746;2023-12-14T04:06:21;8.53;;;7.73;;
28547;SDS011;68292;49.600;8.746;2023-12-14T04:08:51;9.67;;;7.90;;
28547;SDS011;68292;49.600;8.746;2023-12-14T04:11:20;8.23;;;7.43;;
28547;SDS011;68292;49.600;8.746;2023-12-14T04:13:48;8.27;;;7.53;;
28547;SDS011;68292;49.600;8.746;2023-12-14T04:16:20;9.57;;;8.73;;
28547;SDS011;68292;49.600;8.746;2023-12-14T04:18:52;9.50;;;8.60;;
28547;SDS011;68292;49.600;8.746;2023-12-14T04:21:20;9.50;;;8.50;;
28547;SDS011;68292;49.600;8.746;2023-12-14T04:23:50;10.20;;;8.53;;
28547;SDS011;68292;49.600;8.746;2023-12-14T04:26:19;9.60;;;8.77;;
28547;SDS011;68292;49.600;8.746;2023-12-14T04:28:48;8.87;;;7.67;;
28547;SDS011;68292;49.600;8.746;2023-12-14T04:31:17;9.10;;;8.20;;
28547;SDS011;68292;49.600;8.746;2023-12-14T04:33:46;9.00;;;8.10;;
28547;SDS011;68292;49.600;8.746;2023-12-14T04:36:14;8.80;;;7.93;;
28547;SDS011;68292;49.600;8.746;2023-12-14T04:38:43;11.03;;;8.33;;
28547;SDS011;68292;49.600;8.746;2023-12-14T04:41:14;9.23;;;8.17;;
28547;SDS011;68292;49.600;8.746;2023-12-14T04:43:43;13.03;;;8.73;;
28547;SDS011;68292;49.600;8.746;2023-12-14T04:46:12;9.20;;;8.30;;
28547;SDS011;68292;49.600;8.746;2023-12-14T04:48:41;9.67;;;7.77;;
28547;SDS011;68292;49.600;8.746;2023-12-14T04:51:13;8.93;;;8.03;;
28547;SDS011;68292;49.600;8.746;2023-12-14T04:53:42;8.97;;;8.17;;
28547;SDS011;68292;49.600;8.746;2023-12-14T04:56:10;11.37;;;8.20;;
28547;SDS011;68292;49.600;8.746;2023-12-14T04:58:41;9.13;;;7.87;;
28547;SDS011;68292;49.600;8.746;2023-12-14T05:01:10;8.93;;;8.13;;
28547;SDS011;68292;49.600;8.746;2023-12-14T05:03:39;8.70;;;7.90;;
28547;SDS011;68292;49.600;8.746;2023-12-14T05:06:08;8.80;;;7.90;;
28547;SDS011;68292;49.600;8.746;2023-12-14T05:08:37;9.83;;;8.93;;
28547;SDS011;68292;49.600;8.746;2023-12-14T05:11:06;10.53;;;8.83;;
28547;SDS011;68292;49.600;8.746;2023-12-14T05:13:34;10.17;;;8.53;;
28547;SDS011;68292;49.600;8.746;2023-12-14T05:16:05;9.17;;;8.27;;
28547;SDS011;68292;49.600;8.746;2023-12-14T05:18:35;9.87;;;8.77;;
28547;SDS011;68292;49.600;8.746;2023-12-14T05:21:03;9.67;;;8.70;;
28547;SDS011;68292;49.600;8.746;2023-12-14T05:23:32;10.53;;;9.53;;
28547;SDS011;68292;49.600;8.746;2023-12-14T05:26:01;10.27;;;9.27;;
28547;SDS011;68292;49.600;8.746;2023-12-14T05:28:30;9.63;;;8.60;;
28547;SDS011;68292;49.600;8.746;2023-12-14T05:30:59;9.63;;;8.83;;
28547;SDS011;68292;49.600;8.746;2023-12-14T05:33:31;11.33;;;8.57;;
28547;SDS011;68292;49.600;8.746;2023-12-14T05:36:00;9.17;;;8.37;;
28547;SDS011;68292;49.600;8.746;2023-12-14T05:38:31;9.70;;;8.90;;
28547;SDS011;68292;49.600;8.746;2023-12-14T05:41:00;9.87;;;8.87;;
28547;SDS011;68292;49.600;8.746;2023-12-14T05:43:31;11.40;;;10.00;;
28547;SDS011;68292;49.600;8.746;2023-12-14T05:46:00;10.93;;;9.93;;
28547;SDS011;68292;49.600;8.746;2023-12-14T05:48:28;11.70;;;10.53;;
28547;SDS011;68292;49.600;8.746;2023-12-14T05:50:59;13.20;;;10.87;;
28547;SDS011;68292;49.600;8.746;2023-12-14T05:53:28;12.23;;;11.03;;
28547;SDS011;68292;49.600;8.746;2023-12-14T05:55:57;13.87;;;11.50;;
28547;SDS011;68292;49.600;8.746;2023-12-14T05:58:26;11.03;;;9.93;;
28547;SDS011;68292;49.600;8.746;2023-12-14T06:00:55;10.37;;;9.37;;
28547;SDS011;68292;49.600;8.746;2023-12-14T06:03:24;11.07;;;10.07;;
28547;SDS011;68292;49.600;8.746;2023-12-14T06:05:54;9.10;;;8.27;;
28547;SDS011;68292;49.600;8.746;2023-12-14T06:08:23;9.13;;;8.23;;
28547;SDS011;68292;49.600;8.746;2023-12-14T06:10:51;9.80;;;8.90;;
28547;SDS011;68292;49.600;8.746;2023-12-14T06:13:24;11.10;;;9.93;;
28547;SDS011;68292;49.600;8.746;2023-12-14T06:15:52;11.10;;;9.37;;
28547;SDS011;68292;49.600;8.746;2023-12-14T06:18:21;10.77;;;9.80;;
28547;SDS011;68292;49.600;8.746;2023-12-14T06:20:50;10.60;;;9.50;;
28547;SDS011;68292;49.600;8.746;2023-12-14T06:23:20;11.57;;;10.40;;
28547;SDS011;68292;49.600;8.746;2023-12-14T06:25:49;10.57;;;9.67;;
28547;SDS011;68292;49.600;8.746;2023-12-14T06:28:19;9.93;;;8.93;;
28547;SDS011;68292;49.600;8.746;2023-12-14T06:30:48;8.80;;;7.93;;
28547;SDS011;68292;49.600;8.746;2023-12-14T06:33:17;8.23;;;7.43;;
28547;SDS011;68292;49.600;8.746;2023-12-14T06:35:46;8.97;;;8.17;;
28547;SDS011;68292;49.600;8.746;2023-12-14T06:38:15;9.90;;;8.60;;
28547;SDS011;68292;49.600;8.746;2023-12-14T06:40:45;9.63;;;8.67;;
28547;SDS011;68292;49.600;8.746;2023-12-14T06:43:14;9.23;;;8.33;;
28547;SDS011;68292;49.600;8.746;2023-12-14T06:45:43;9.03;;;8.13;;
28547;SDS011;68292;49.600;8.746;2023-12-14T06:48:11;10.00;;;8.93;;
28547;SDS011;68292;49.600;8.746;2023-12-14T06:50:40;10.57;;;9.47;;
28547;SDS011;68292;49.600;8.746;2023-12-14T06:53:13;11.03;;;10.03;;
28547;SDS011;68292;49.600;8.746;2023-12-14T06:55:42;11.83;;;10.63;;
28547;SDS011;68292;49.600;8.746;2023-12-14T06:58:12;12.73;;;11.47;;
28547;SDS011;68292;49.600;8.746;2023-12-14T07:00:42;12.53;;;11.33;;
28547;SDS011;68292;49.600;8.746;2023-12-14T07:03:11;12.03;;;10.93;;
28547;SDS011;68292;49.600;8.746;2023-12-14T07:05:42;14.53;;;11.90;;
28547;SDS011;68292;49.600;8.746;2023-12-14T07:08:10;12.77;;;11.60;;
28547;SDS011;68292;49.600;8.746;2023-12-14T07:10:41;11.13;;;10.03;;
28547;SDS011;68292;49.600;8.746;2023-12-14T07:13:09;12.87;;;11.57;;
28547;SDS011;68292;49.600;8.746;2023-12-14T07:15:39;13.60;;;12.40;;
28547;SDS011;68292;49.600;8.746;2023-12-14T07:18:08;12.47;;;11.20;;
28547;SDS011;68292;49.600;8.746;2023-12-14T07:20:37;12.27;;;11.00;;
28547;SDS011;68292;49.600;8.746;2023-12-14T07:23:06;13.23;;;11.90;;
28547;SDS011;68292;49.600;8.746;2023-12-14T07:25:35;15.53;;;12.17;;
28547;SDS011;68292;49.600;8.746;2023-12-14T07:28:04;14.27;;;12.70;;
28547;SDS011;68292;49.600;8.746;2023-12-14T07:30:32;15.60;;;11.47;;
28547;SDS011;68292;49.600;8.746;2023-12-14T07:33:02;13.87;;;12.23;;
28547;SDS011;68292;49.600;8.746;2023-12-14T07:35:34;13.67;;;12.27;;
28547;SDS011;68292;49.600;8.746;2023-12-14T07:38:03;13.10;;;11.63;;
28547;SDS011;68292;49.600;8.746;2023-12-14T07:40:32;12.73;;;11.07;;
28547;SDS011;68292;49.600;8.746;2023-12-14T07:43:00;12.83;;;11.53;;
28547;SDS011;68292;49.600;8.746;2023-12-14T07:45:30;11.40;;;10.30;;
28547;SDS011;68292;49.600;8.746;2023-12-14T07:47:58;15.17;;;13.60;;
28547;SDS011;68292;49.600;8.746;2023-12-14T07:50:29;13.27;;;11.97;;
28547;SDS011;68292;49.600;8.746;2023-12-14T07:52:57;13.30;;;11.43;;
28547;SDS011;68292;49.600;8.746;2023-12-14T07:55:26;13.83;;;12.43;;
28547;SDS011;68292;49.600;8.746;2023-12-14T07:57:55;12.73;;;11.43;;
28547;SDS011;68292;49.600;8.746;2023-12-14T08:00:24;30.50;;;23.23;;
28547;SDS011;68292;49.600;8.746;2023-12-14T08:02:53;22.93;;;16.60;;
28547;SDS011;68292;49.600;8.746;2023-12-14T08:05:22;17.83;;;15.93;;
28547;SDS011;68292;49.600;8.746;2023-12-14T08:07:52;15.47;;;13.97;;
28547;SDS011;68292;49.600;8.746;2023-12-14T08:10:21;14.57;;;12.73;;
28547;SDS011;68292;49.600;8.746;2023-12-14T08:12:49;14.63;;;12.93;;
28547;SDS011;68292;49.600;8.746;2023-12-14T08:15:19;15.80;;;14.20;;
28547;SDS011;68292;49.600;8.746;2023-12-14T08:17:47;16.17;;;13.77;;
28547;SDS011;68292;49.600;8.746;2023-12-14T08:20:16;15.17;;;13.17;;
28547;SDS011;68292;49.600;8.746;2023-12-14T08:22:45;23.80;;;21.70;;
28547;SDS011;68292;49.600;8.746;2023-12-14T08:25:15;19.93;;;18.10;;
28547;SDS011;68292;49.600;8.746;2023-12-14T08:27:45;20.07;;;18.20;;
28547;SDS011;68292;49.600;8.746;2023-12-14T08:30:13;21.93;;;19.83;;
28547;SDS011;68292;49.600;8.746;2023-12-14T08:32:43;17.60;;;15.90;;
28547;SDS011;68292;49.600;8.746;2023-12-14T08:35:12;14.33;;;12.73;;
28547;SDS011;68292;49.600;8.746;2023-12-14T08:37:41;13.30;;;12.00;;
28547;SDS011;68292;49.600;8.746;2023-12-14T08:40:11;12.87;;;11.57;;
28547;SDS011;68292;49.600;8.746;2023-12-14T08:42:42;13.83;;;11.53;;
28547;SDS011;68292;49.600;8.746;2023-12-14T08:45:10;12.70;;;11.23;;
28547;SDS011;68292;49.600;8.746;2023-12-14T08:47:39;13.10;;;11.33;;
28547;SDS011;68292;49.600;8.746;2023-12-14T08:50:09;11.60;;;10.23;;
28547;SDS011;68292;49.600;8.746;2023-12-14T08:52:39;11.93;;;10.73;;
28547;SDS011;68292;49.600;8.746;2023-12-14T08:55:08;11.13;;;9.73;;
28547;SDS011;68292;49.600;8.746;2023-12-14T08:57:38;10.40;;;9.30;;
28547;SDS011;68292;49.600;8.746;2023-12-14T09:00:08;10.13;;;8.43;;
28547;SDS011;68292;49.600;8.746;2023-12-14T09:02:39;9.50;;;8.43;;
28547;SDS011;68292;49.600;8.746;2023-12-14T09:05:08;9.20;;;7.97;;
28547;SDS011;68292;49.600;8.746;2023-12-14T09:07:40;8.70;;;7.80;;
28547;SDS011;68292;49.600;8.746;2023-12-14T09:10:09;10.57;;;9.57;;
28547;SDS011;68292;49.600;8.746;2023-12-14T09:12:37;11.53;;;9.97;;
28547;SDS011;68292;49.600;8.746;2023-12-14T09:15:08;11.80;;;9.97;;
28547;SDS011;68292;49.600;8.746;2023-12-14T09:17:38;10.37;;;9.27;;
28547;SDS011;68292;49.600;8.746;2023-12-14T09:20:09;10.77;;;8.63;;
28547;SDS011;68292;49.600;8.746;2023-12-14T09:22:39;10.13;;;8.90;;
28547;SDS011;68292;49.600;8.746;2023-12-14T09:25:08;9.10;;;8.20;;
28547;SDS011;68292;49.600;8.746;2023-12-14T09:27:37;10.93;;;8.87;;
28547;SDS011;68292;49.600;8.746;2023-12-14T09:30:08;9.70;;;8.70;;
28547;SDS011;68292;49.600;8.746;2023-12-14T09:32:38;11.23;;;9.03;;
28547;SDS011;68292;49.600;8.746;2023-12-14T09:35:08;10.47;;;9.37;;
28547;SDS011;68292;49.600;8.746;2023-12-14T09:37:37;10.97;;;9.10;;
28547;SDS011;68292;49.600;8.746;2023-12-14T09:40:06;9.30;;;8.47;;
28547;SDS011;68292;49.600;8.746;2023-12-14T09:42:38;9.60;;;8.53;;
28547;SDS011;68292;49.600;8.746;2023-12-14T09:45:09;9.43;;;8.43;;
28547;SDS011;68292;49.600;8.746;2023-12-14T09:47:38;8.90;;;7.63;;
28547;SDS011;68292;49.600;8.746;2023-12-14T09:50:07;9.77;;;8.23;;
28547;SDS011;68292;49.600;8.746;2023-12-14T09:52:36;9.10;;;7.90;;
28547;SDS011;68292;49.600;8.746;2023-12-14T09:55:05;9.80;;;8.77;;
28547;SDS011;68292;49.600;8.746;2023-12-14T09:57:35;8.10;;;7.30;;
28547;SDS011;68292;49.600;8.746;2023-12-14T10:00:04;9.87;;;8.77;;
28547;SDS011;68292;49.600;8.746;2023-12-14T10:02:40;9.07;;;8.17;;
28547;SDS011;68292;49.600;8.746;2023-12-14T10:05:10;9.03;;;8.13;;
28547;SDS011;68292;49.600;8.746;2023-12-14T10:07:41;7.83;;;7.13;;
28547;SDS011;68292;49.600;8.746;2023-12-14T10:10:13;7.80;;;7.00;;
28547;SDS011;68292;49.600;8.746;2023-12-14T10:12:51;7.97;;;7.10;;
28547;SDS011;68292;49.600;8.746;2023-12-14T10:15:21;8.10;;;7.20;;
28547;SDS011;68292;49.600;8.746;2023-12-14T10:17:52;9.80;;;8.33;;
28547;SDS011;68292;49.600;8.746;2023-12-14T10:20:22;8.93;;;8.03;;
28547;SDS011;68292;49.600;8.746;2023-12-14T10:22:53;11.07;;;6.90;;
28547;SDS011;68292;49.600;8.746;2023-12-14T10:25:22;7.40;;;6.57;;
28547;SDS011;68292;49.600;8.746;2023-12-14T10:27:52;8.70;;;7.13;;
28547;SDS011;68292;49.600;8.746;2023-12-14T10:30:21;6.67;;;6.03;;
28547;SDS011;68292;49.600;8.746;2023-12-14T10:32:50;7.37;;;6.43;;
28547;SDS011;68292;49.600;8.746;2023-12-14T10:35:20;7.53;;;6.57;;
28547;SDS011;68292;49.600;8.746;2023-12-14T10:37:50;7.40;;;6.70;;
28547;SDS011;68292;49.600;8.746;2023-12-14T10:40:20;8.13;;;7.13;;
28547;SDS011;68292;49.600;8.746;2023-12-14T10:42:50;8.00;;;7.13;;
28547;SDS011;68292;49.600;8.746;2023-12-14T10:45:20;8.43;;;7.57;;
28547;SDS011;68292;49.600;8.746;2023-12-14T10:48:03;8.53;;;7.63;;
28547;SDS011;68292;49.600;8.746;2023-12-14T10:50:36;8.43;;;7.53;;
28547;SDS011;68292;49.600;8.746;2023-12-14T10:53:05;9.30;;;7.50;;
28547;SDS011;68292;49.600;8.746;2023-12-14T10:55:36;9.57;;;8.67;;
28547;SDS011;68292;49.600;8.746;2023-12-14T10:58:08;9.00;;;8.10;;
28547;SDS011;68292;49.600;8.746;2023-12-14T11:00:39;8.03;;;7.20;;
28547;SDS011;68292;49.600;8.746;2023-12-14T11:03:12;8.03;;;7.23;;
28547;SDS011;68292;49.600;8.746;2023-12-14T11:05:44;9.60;;;8.10;;
28547;SDS011;68292;49.600;8.746;2023-12-14T11:08:13;9.07;;;8.17;;
28547;SDS011;68292;49.600;8.746;2023-12-14T11:10:52;7.97;;;7.17;;
28547;SDS011;68292;49.600;8.746;2023-12-14T11:13:22;8.23;;;7.40;;
28547;SDS011;68292;49.600;8.746;2023-12-14T11:15:52;7.27;;;6.63;;
28547;SDS011;68292;49.600;8.746;2023-12-14T11:18:22;7.63;;;6.93;;
28547;SDS011;68292;49.600;8.746;2023-12-14T11:20:56;8.13;;;6.57;;
28547;SDS011;68292;49.600;8.746;2023-12-14T11:23:31;7.77;;;6.80;;
28547;SDS011;68292;49.600;8.746;2023-12-14T11:26:03;7.87;;;6.73;;
28547;SDS011;68292;49.600;8.746;2023-12-14T11:28:34;8.00;;;7.20;;
28547;SDS011;68292;49.600;8.746;2023-12-14T11:31:07;8.70;;;7.50;;
28547;SDS011;68292;49.600;8.746;2023-12-14T11:33:39;8.40;;;7.60;;
28547;SDS011;68292;49.600;8.746;2023-12-14T11:36:14;9.13;;;7.93;;
28547;SDS011;68292;49.600;8.746;2023-12-14T11:38:47;8.53;;;7.70;;
28547;SDS011;68292;49.600;8.746;2023-12-14T11:41:18;9.37;;;8.20;;
28547;SDS011;68292;49.600;8.746;2023-12-14T11:43:47;12.13;;;7.53;;
28547;SDS011;68292;49.600;8.746;2023-12-14T11:46:16;8.17;;;7.37;;
28547;SDS011;68292;49.600;8.746;2023-12-14T11:48:46;7.53;;;6.63;;
28547;SDS011;68292;49.600;8.746;2023-12-14T11:51:17;8.77;;;7.60;;
28547;SDS011;68292;49.600;8.746;2023-12-14T11:53:46;8.63;;;7.73;;
28547;SDS011;68292;49.600;8.746;2023-12-14T11:56:17;8.50;;;6.97;;
28547;SDS011;68292;49.600;8.746;2023-12-14T11:58:46;7.73;;;6.97;;
28547;SDS011;68292;49.600;8.746;2023-12-14T12:01:17;9.03;;;7.97;;
28547;SDS011;68292;49.600;8.746;2023-12-14T12:03:48;9.20;;;8.23;;
28547;SDS011;68292;49.600;8.746;2023-12-14T12:06:21;8.17;;;7.37;;
28547;SDS011;68292;49.600;8.746;2023-12-14T12:08:52;8.83;;;7.63;;
28547;SDS011;68292;49.600;8.746;2023-12-14T12:11:21;13.17;;;10.80;;
28547;SDS011;68292;49.600;8.746;2023-12-14T12:13:52;13.60;;;12.27;;
28547;SDS011;68292;49.600;8.746;2023-12-14T12:16:22;11.77;;;10.60;;
28547;SDS011;68292;49.600;8.746;2023-12-14T12:18:52;10.27;;;9.30;;
28547;SDS011;68292;49.600;8.746;2023-12-14T12:21:22;10.03;;;9.03;;
28547;SDS011;68292;49.600;8.746;2023-12-14T12:23:52;8.67;;;7.20;;
28547;SDS011;68292;49.600;8.746;2023-12-14T12:26:20;8.00;;;7.30;;
28547;SDS011;68292;49.600;8.746;2023-12-14T12:28:49;6.93;;;6.23;;
28547;SDS011;68292;49.600;8.746;2023-12-14T12:31:18;6.63;;;5.97;;
28547;SDS011;68292;49.600;8.746;2023-12-14T12:33:47;6.90;;;6.20;;
28547;SDS011;68292;49.600;8.746;2023-12-14T12:36:16;6.83;;;6.13;;
28547;SDS011;68292;49.600;8.746;2023-12-14T12:38:46;6.53;;;5.90;;
28547;SDS011;68292;49.600;8.746;2023-12-14T12:41:14;5.87;;;5.37;;
28547;SDS011;68292;49.600;8.746;2023-12-14T12:43:45;11.90;;;5.90;;
28547;SDS011;68292;49.600;8.746;2023-12-14T12:46:14;6.67;;;5.97;;
28547;SDS011;68292;49.600;8.746;2023-12-14T12:48:43;9.57;;;7.63;;
28547;SDS011;68292;49.600;8.746;2023-12-14T12:51:13;8.63;;;7.67;;
28547;SDS011;68292;49.600;8.746;2023-12-14T12:53:43;8.30;;;6.70;;
28547;SDS011;68292;49.600;8.746;2023-12-14T12:56:14;6.50;;;5.90;;
28547;SDS011;68292;49.600;8.746;2023-12-14T12:58:43;6.07;;;5.10;;
28547;SDS011;68292;49.600;8.746;2023-12-14T13:01:12;5.47;;;4.97;;
28547;SDS011;68292;49.600;8.746;2023-12-14T13:03:41;5.50;;;5.00;;
28547;SDS011;68292;49.600;8.746;2023-12-14T13:06:10;5.77;;;5.20;;
28547;SDS011;68292;49.600;8.746;2023-12-14T13:08:39;5.70;;;5.20;;
28547;SDS011;68292;49.600;8.746;2023-12-14T13:11:07;5.57;;;5.07;;
28547;SDS011;68292;49.600;8.746;2023-12-14T13:13:37;5.23;;;4.73;;
28547;SDS011;68292;49.600;8.746;2023-12-14T13:16:07;5.07;;;4.57;;
28547;SDS011;68292;49.600;8.746;2023-12-14T13:18:37;5.13;;;4.63;;
28547;SDS011;68292;49.600;8.746;2023-12-14T13:21:06;5.23;;;4.30;;
28547;SDS011;68292;49.600;8.746;2023-12-14T13:23:35;5.73;;;4.33;;
28547;SDS011;68292;49.600;8.746;2023-12-14T13:26:03;7.27;;;4.53;;
28547;SDS011;68292;49.600;8.746;2023-12-14T13:28:32;4.83;;;4.43;;
28547;SDS011;68292;49.600;8.746;2023-12-14T13:31:03;4.80;;;4.40;;
28547;SDS011;68292;49.600;8.746;2023-12-14T13:33:33;6.80;;;4.60;;
28547;SDS011;68292;49.600;8.746;2023-12-14T13:36:02;4.87;;;4.47;;
28547;SDS011;68292;49.600;8.746;2023-12-14T13:38:31;4.70;;;4.30;;
28547;SDS011;68292;49.600;8.746;2023-12-14T13:41:00;4.50;;;4.10;;
28547;SDS011;68292;49.600;8.746;2023-12-14T13:43:29;4.17;;;3.77;;
28547;SDS011;68292;49.600;8.746;2023-12-14T13:45:58;4.57;;;4.17;;
28547;SDS011;68292;49.600;8.746;2023-12-14T13:48:45;4.60;;;4.20;;
28547;SDS011;68292;49.600;8.746;2023-12-14T13:51:15;4.03;;;3.70;;
28547;SDS011;68292;49.600;8.746;2023-12-14T13:53:43;4.80;;;4.27;;
28547;SDS011;68292;49.600;8.746;2023-12-14T13:56:12;5.10;;;4.37;;
28547;SDS011;68292;49.600;8.746;2023-12-14T13:58:41;4.67;;;4.27;;
28547;SDS011;68292;49.600;8.746;2023-12-14T14:01:10;5.53;;;5.03;;
28547;SDS011;68292;49.600;8.746;2023-12-14T14:03:40;5.33;;;4.87;;
28547;SDS011;68292;49.600;8.746;2023-12-14T14:06:11;4.87;;;4.20;;
28547;SDS011;68292;49.600;8.746;2023-12-14T14:08:40;4.87;;;4.47;;
28547;SDS011;68292;49.600;8.746;2023-12-14T14:11:09;5.23;;;4.53;;
28547;SDS011;68292;49.600;8.746;2023-12-14T14:13:39;5.43;;;4.93;;
28547;SDS011;68292;49.600;8.746;2023-12-14T14:16:08;5.30;;;4.77;;
28547;SDS011;68292;49.600;8.746;2023-12-14T14:18:37;6.27;;;5.67;;
28547;SDS011;68292;49.600;8.746;2023-12-14T14:21:06;6.13;;;5.53;;
28547;SDS011;68292;49.600;8.746;2023-12-14T14:23:36;8.23;;;5.60;;
28547;SDS011;68292;49.600;8.746;2023-12-14T14:26:05;6.13;;;5.30;;
28547;SDS011;68292;49.600;8.746;2023-12-14T14:28:34;7.53;;;4.93;;
28547;SDS011;68292;49.600;8.746;2023-12-14T14:31:03;5.93;;;5.33;;
28547;SDS011;68292;49.600;8.746;2023-12-14T14:33:32;6.00;;;5.40;;
28547;SDS011;68292;49.600;8.746;2023-12-14T14:36:01;6.10;;;5.50;;
28547;SDS011;68292;49.600;8.746;2023-12-14T14:38:32;6.20;;;5.60;;
28547;SDS011;68292;49.600;8.746;2023-12-14T14:41:02;5.20;;;4.70;;
28547;SDS011;68292;49.600;8.746;2023-12-14T14:43:31;6.57;;;5.97;;
28547;SDS011;68292;49.600;8.746;2023-12-14T14:46:00;7.53;;;6.40;;
28547;SDS011;68292;49.600;8.746;2023-12-14T14:48:29;7.20;;;6.40;;
28547;SDS011;68292;49.600;8.746;2023-12-14T14:50:58;7.93;;;5.93;;
28547;SDS011;68292;49.600;8.746;2023-12-14T14:53:27;7.10;;;6.50;;